createdAt,value
2022-12-06T00:01:26.463Z,58.80
2022-12-06T00:03:59.561Z,57.28
2022-12-06T00:06:49.336Z,61.20
2022-12-06T00:09:32.100Z,63.45
2022-12-06T00:11:59.749Z,60.47
2022-12-06T00:14:27.259Z,54.92
2022-12-06T00:16:54.365Z,53.05
2022-12-06T00:19:23.612Z,52.20
2022-12-06T00:21:50.769Z,55.83
2022-12-06T00:24:20.513Z,50.90
2022-12-06T00:26:49.363Z,55.22
2022-12-06T00:29:23.863Z,50.97
2022-12-06T00:31:57.864Z,48.22
2022-12-06T00:34:25.023Z,46.83
2022-12-06T00:36:52.062Z,50.92
2022-12-06T00:39:19.212Z,54.42
2022-12-06T00:41:46.377Z,66.70
2022-12-06T00:44:13.422Z,52.42
2022-12-06T00:46:40.606Z,48.22
2022-12-06T00:49:09.278Z,51.42
2022-12-06T00:51:37.937Z,52.03
2022-12-06T00:54:05.954Z,42.25
2022-12-06T00:56:35.149Z,46.83
2022-12-06T00:59:02.109Z,45.20
2022-12-06T01:01:30.969Z,38.22
2022-12-06T01:04:01.274Z,44.90
2022-12-06T01:06:30.535Z,46.00
2022-12-06T01:08:59.998Z,50.50
2022-12-06T01:11:28.361Z,45.35
2022-12-06T01:13:56.687Z,47.80
2022-12-06T01:16:27.142Z,40.90
2022-12-06T01:18:59.520Z,36.97
2022-12-06T01:21:28.004Z,40.58
2022-12-06T01:23:54.932Z,36.85
2022-12-06T01:26:27.894Z,39.42
2022-12-06T01:28:55.077Z,41.92
2022-12-06T01:31:22.106Z,45.63
2022-12-06T01:33:49.085Z,41.28
2022-12-06T01:36:26.005Z,41.22
2022-12-06T01:38:55.608Z,47.63
2022-12-06T01:41:25.191Z,48.13
2022-12-06T01:43:52.923Z,38.97
2022-12-06T01:46:35.116Z,42.58
2022-12-06T01:49:14.100Z,52.58
2022-12-06T01:51:49.607Z,55.13
2022-12-06T01:54:19.846Z,51.70
2022-12-06T01:56:49.119Z,46.63
2022-12-06T01:59:16.956Z,49.70
2022-12-06T02:01:44.377Z,53.63
2022-12-06T02:04:11.417Z,46.40
2022-12-06T02:06:40.540Z,48.72
2022-12-06T02:09:09.662Z,64.18
2022-12-06T02:11:37.234Z,50.63
2022-12-06T02:14:07.729Z,46.50
2022-12-06T02:17:11.073Z,53.35
2022-12-06T02:19:44.169Z,57.38
2022-12-06T02:22:33.330Z,56.92
2022-12-06T02:25:00.153Z,54.33
2022-12-06T02:27:48.346Z,63.83
2022-12-06T02:30:51.693Z,54.67
2022-12-06T02:33:36.539Z,47.22
2022-12-06T02:36:26.687Z,47.10
2022-12-06T02:39:12.943Z,43.00
2022-12-06T02:41:45.745Z,50.83
2022-12-06T02:44:23.706Z,49.08
2022-12-06T02:46:51.583Z,39.20
2022-12-06T02:49:19.889Z,41.28
2022-12-06T02:51:48.729Z,39.75
2022-12-06T02:54:17.728Z,46.05
2022-12-06T02:56:44.562Z,50.72
2022-12-06T02:59:12.032Z,50.00
2022-12-06T03:01:45.550Z,47.42
2022-12-06T03:04:31.760Z,46.58
2022-12-06T03:07:17.541Z,44.83
2022-12-06T03:09:56.426Z,50.08
2022-12-06T03:12:47.739Z,48.25
2022-12-06T03:15:36.177Z,47.53
2022-12-06T03:18:24.322Z,46.40
2022-12-06T03:20:56.521Z,44.10
2022-12-06T03:23:35.880Z,51.13
2022-12-06T03:26:05.537Z,41.38
2022-12-06T03:28:36.786Z,49.03
2022-12-06T03:31:10.923Z,43.38
2022-12-06T03:33:42.519Z,49.80
2022-12-06T03:36:13.458Z,52.17
2022-12-06T03:38:58.949Z,60.95
2022-12-06T03:41:33.276Z,48.72
2022-12-06T03:44:00.355Z,46.33
2022-12-06T03:46:32.905Z,50.35
2022-12-06T03:49:05.661Z,52.40
2022-12-06T03:51:37.737Z,55.35
2022-12-06T03:54:06.945Z,52.80
2022-12-06T03:56:36.956Z,55.10
2022-12-06T03:59:08.800Z,53.13
2022-12-06T04:01:36.517Z,68.80
2022-12-06T04:04:03.827Z,61.53
2022-12-06T04:06:30.914Z,61.45
2022-12-06T04:09:17.844Z,68.60
2022-12-06T04:11:44.957Z,67.35
2022-12-06T04:14:11.873Z,62.58
2022-12-06T04:16:57.176Z,61.75
2022-12-06T04:19:24.446Z,61.17
2022-12-06T04:22:10.088Z,58.20
2022-12-06T04:24:36.894Z,62.05
2022-12-06T04:27:22.406Z,61.25
2022-12-06T04:30:07.914Z,51.22
2022-12-06T04:32:53.253Z,57.92
2022-12-06T04:35:38.833Z,53.45
2022-12-06T04:38:24.429Z,60.15
2022-12-06T04:40:51.396Z,50.67
2022-12-06T04:43:36.601Z,58.83
2022-12-06T04:46:03.708Z,53.15
2022-12-06T04:48:30.635Z,64.70
2022-12-06T04:50:57.597Z,63.67
2022-12-06T04:53:24.707Z,59.67
2022-12-06T04:55:52.886Z,62.83
2022-12-06T04:58:19.869Z,65.20
2022-12-06T05:00:46.798Z,61.33
2022-12-06T05:03:15.394Z,71.65
2022-12-06T05:05:42.836Z,67.47
2022-12-06T05:08:10.397Z,63.38
2022-12-06T05:10:37.472Z,73.63
2022-12-06T05:13:05.085Z,64.07
2022-12-06T05:15:34.462Z,68.72
2022-12-06T05:18:01.545Z,56.83
2022-12-06T05:20:31.285Z,72.20
2022-12-06T05:22:58.369Z,83.43
2022-12-06T05:25:25.447Z,74.13
2022-12-06T05:27:52.612Z,80.82
2022-12-06T05:30:19.621Z,70.38
2022-12-06T05:32:55.443Z,61.53
2022-12-06T05:35:24.234Z,33.75
2022-12-06T05:37:51.545Z,35.88
2022-12-06T05:40:18.601Z,35.45
2022-12-06T05:42:45.848Z,43.33
2022-12-06T05:45:13.193Z,45.28
2022-12-06T05:47:40.025Z,41.22
2022-12-06T05:50:11.460Z,46.20
2022-12-06T05:52:38.553Z,41.28
2022-12-06T05:55:06.029Z,52.00
2022-12-06T05:57:33.010Z,43.88
2022-12-06T06:00:00.159Z,47.55
2022-12-06T06:02:28.469Z,59.28
2022-12-06T06:04:55.814Z,48.63
2022-12-06T06:07:22.918Z,54.20
2022-12-06T06:09:49.782Z,45.88
2022-12-06T06:12:16.897Z,30.15
2022-12-06T06:14:43.950Z,29.65
2022-12-06T06:17:11.207Z,21.27
2022-12-06T06:19:38.270Z,24.15
2022-12-06T06:22:05.378Z,20.40
2022-12-06T06:24:37.496Z,21.35
2022-12-06T06:27:05.428Z,17.80
2022-12-06T06:29:32.497Z,12.77
2022-12-06T06:32:01.006Z,12.30
2022-12-06T06:34:28.114Z,12.68
2022-12-06T06:36:55.072Z,11.48
2022-12-06T06:39:22.290Z,15.30
2022-12-06T06:41:49.278Z,16.58
2022-12-06T06:44:19.533Z,13.73
2022-12-06T06:46:46.838Z,15.40
2022-12-06T06:49:14.064Z,13.90
2022-12-06T06:51:41.446Z,14.00
2022-12-06T06:54:08.875Z,13.07
2022-12-06T06:56:35.939Z,11.48
2022-12-06T06:59:03.160Z,8.95
2022-12-06T07:01:30.223Z,13.27
2022-12-06T07:03:57.596Z,8.63
2022-12-06T07:06:24.667Z,10.05
2022-12-06T07:08:51.850Z,25.98
2022-12-06T07:11:18.707Z,10.18
2022-12-06T07:13:51.233Z,10.60
2022-12-06T07:16:20.205Z,14.82
2022-12-06T07:18:48.053Z,10.25
2022-12-06T07:21:16.334Z,20.80
2022-12-06T07:23:43.470Z,12.57
2022-12-06T07:26:13.484Z,79.03
2022-12-06T07:28:42.961Z,70.55
2022-12-06T07:31:16.907Z,79.30
2022-12-06T07:33:45.168Z,50.72
2022-12-06T07:36:14.298Z,35.92
2022-12-06T07:38:43.485Z,42.35
2022-12-06T07:41:32.356Z,43.53
2022-12-06T07:44:20.341Z,30.17
2022-12-06T07:46:48.461Z,8.63
2022-12-06T07:49:19.881Z,8.65
2022-12-06T07:51:47.944Z,14.45
2022-12-06T07:54:16.438Z,11.02
2022-12-06T07:56:44.429Z,8.18
2022-12-06T07:59:15.626Z,7.18
2022-12-06T08:01:43.549Z,6.63
2022-12-06T08:04:11.432Z,9.50
2022-12-06T08:06:38.866Z,9.32
2022-12-06T08:09:07.484Z,10.77
2022-12-06T08:11:35.005Z,9.68
2022-12-06T08:14:02.138Z,57.70
2022-12-06T08:16:29.658Z,60.72
2022-12-06T08:18:58.048Z,33.05
2022-12-06T08:21:27.179Z,24.90
2022-12-06T08:23:55.444Z,27.25
2022-12-06T08:26:28.677Z,28.02
2022-12-06T08:29:00.211Z,22.52
2022-12-06T08:31:28.274Z,21.83
2022-12-06T08:33:55.832Z,21.77
2022-12-06T08:36:24.427Z,21.80
2022-12-06T08:38:53.167Z,23.35
2022-12-06T08:41:39.442Z,14.82
2022-12-06T08:44:07.365Z,26.02
2022-12-06T08:46:35.384Z,37.42
2022-12-06T08:49:02.875Z,27.38
2022-12-06T08:51:31.462Z,33.42
2022-12-06T08:53:58.621Z,20.60
2022-12-06T08:56:26.690Z,19.35
2022-12-06T08:58:55.301Z,22.52
2022-12-06T09:01:31.220Z,32.20
2022-12-06T09:04:06.695Z,32.08
2022-12-06T09:06:34.529Z,29.20
2022-12-06T09:09:04.674Z,27.58
2022-12-06T09:11:31.877Z,49.05
2022-12-06T09:13:58.893Z,32.83
2022-12-06T09:16:26.599Z,49.80
2022-12-06T09:18:54.276Z,20.27
2022-12-06T09:21:24.086Z,37.45
2022-12-06T09:23:54.572Z,24.35
2022-12-06T09:26:22.279Z,31.50
2022-12-06T09:28:52.624Z,37.38
2022-12-06T09:31:20.005Z,18.95
2022-12-06T09:33:47.782Z,15.75
2022-12-06T09:36:27.121Z,13.45
2022-12-06T09:39:00.085Z,15.88
2022-12-06T09:41:46.307Z,15.18
2022-12-06T09:44:42.520Z,16.23
2022-12-06T09:47:22.684Z,21.30
2022-12-06T09:50:40.971Z,17.60
2022-12-06T09:53:32.974Z,24.30
2022-12-06T09:56:40.973Z,21.42
2022-12-06T09:59:59.379Z,18.23
2022-12-06T10:02:44.239Z,23.63
2022-12-06T10:05:28.363Z,22.40
2022-12-06T10:08:09.545Z,20.52
2022-12-06T10:10:42.735Z,21.75
2022-12-06T10:13:24.894Z,22.95
2022-12-06T10:16:17.058Z,20.15
2022-12-06T10:18:49.752Z,18.83
2022-12-06T10:21:53.284Z,24.60
2022-12-06T10:24:57.334Z,80.30
2022-12-06T10:27:49.530Z,18.40
2022-12-06T10:30:17.732Z,18.00
2022-12-06T10:32:51.164Z,15.88
2022-12-06T10:35:37.401Z,18.67
2022-12-06T10:41:39.961Z,22.63
2022-12-06T10:44:25.624Z,27.83
2022-12-06T10:47:21.972Z,22.75
2022-12-06T10:49:51.920Z,22.45
2022-12-06T10:52:25.061Z,20.48
2022-12-06T10:55:05.636Z,28.05
2022-12-06T10:57:46.929Z,15.85
2022-12-06T11:00:21.170Z,20.70
2022-12-06T11:03:05.169Z,19.48
2022-12-06T11:05:44.560Z,18.20
2022-12-06T11:08:20.027Z,19.55
2022-12-06T11:10:49.240Z,22.13
2022-12-06T11:13:19.626Z,17.05
2022-12-06T11:16:00.636Z,15.18
2022-12-06T11:18:29.857Z,21.65
2022-12-06T11:21:01.176Z,11.13
2022-12-06T11:23:45.885Z,16.63
2022-12-06T11:26:18.291Z,14.20
2022-12-06T11:29:05.280Z,15.55
2022-12-06T11:31:50.084Z,13.50
2022-12-06T11:34:32.148Z,11.68
2022-12-06T11:37:07.149Z,11.18
2022-12-06T11:39:35.302Z,15.75
2022-12-06T11:42:05.356Z,7.72
2022-12-06T11:44:49.742Z,8.40
2022-12-06T11:47:22.410Z,31.52
2022-12-06T11:49:53.639Z,7.30
2022-12-06T11:52:37.977Z,6.68
2022-12-06T11:55:17.955Z,10.25
2022-12-06T11:58:01.275Z,17.00
2022-12-06T12:00:31.483Z,11.98
2022-12-06T12:02:59.045Z,11.60
2022-12-06T12:05:30.678Z,6.50
2022-12-06T12:08:16.663Z,13.00
2022-12-06T12:10:47.545Z,12.18
2022-12-06T12:13:38.615Z,10.50
2022-12-06T12:16:21.117Z,8.43
2022-12-06T12:19:05.983Z,12.13
2022-12-06T12:21:39.991Z,16.17
2022-12-06T12:25:03.145Z,13.45
2022-12-06T12:27:39.614Z,10.27
2022-12-06T12:30:21.617Z,10.00
2022-12-06T12:32:51.937Z,9.68
2022-12-06T12:35:22.769Z,14.98
2022-12-06T12:37:52.994Z,7.00
2022-12-06T12:40:30.630Z,13.60
2022-12-06T12:43:05.565Z,7.10
2022-12-06T12:45:33.271Z,6.78
2022-12-06T12:48:02.563Z,6.35
2022-12-06T12:50:32.787Z,9.30
2022-12-06T12:53:00.819Z,8.10
2022-12-06T12:55:31.038Z,12.82
2022-12-06T12:58:00.695Z,12.40
2022-12-06T13:00:46.255Z,10.23
2022-12-06T13:03:49.696Z,16.17
2022-12-06T13:06:07.436Z,13.70
2022-12-06T13:08:38.359Z,12.43
2022-12-06T13:11:06.581Z,15.50
2022-12-06T13:13:55.743Z,15.68
2022-12-06T13:16:34.806Z,17.77
2022-12-06T13:19:02.511Z,16.25
2022-12-06T13:21:36.303Z,10.80
2022-12-06T13:24:18.421Z,29.52
2022-12-06T13:26:53.880Z,55.65
2022-12-06T13:29:38.771Z,53.50
2022-12-06T13:32:22.722Z,77.82
2022-12-06T13:34:55.179Z,35.90
2022-12-06T13:37:52.268Z,21.67
2022-12-06T13:40:46.026Z,15.68
2022-12-06T13:43:25.985Z,15.32
2022-12-06T13:46:24.477Z,28.33
2022-12-06T13:49:00.662Z,44.33
2022-12-06T13:51:34.752Z,23.95
2022-12-06T13:54:04.801Z,31.67
2022-12-06T13:56:34.801Z,47.03
2022-12-06T13:59:04.779Z,33.38
2022-12-06T14:01:49.661Z,36.90
2022-12-06T14:07:00.322Z,25.90
2022-12-06T14:09:37.542Z,22.63
2022-12-06T14:12:10.379Z,20.38
2022-12-06T14:14:59.809Z,90.93
2022-12-06T14:18:03.556Z,52.35
2022-12-06T14:20:48.793Z,89.22
2022-12-06T14:23:26.425Z,50.22
2022-12-06T14:26:15.316Z,43.75
2022-12-06T14:28:43.470Z,31.38
2022-12-06T14:31:43.939Z,26.48
2022-12-06T14:34:29.105Z,15.90
2022-12-06T14:40:16.525Z,35.83
2022-12-06T14:43:02.787Z,27.77
2022-12-06T14:45:35.018Z,21.20
2022-12-06T14:48:04.434Z,22.27
2022-12-06T14:50:41.239Z,21.88
2022-12-06T14:53:27.872Z,22.38
2022-12-06T14:56:29.985Z,19.20
2022-12-06T14:58:59.620Z,21.83
2022-12-06T15:01:32.257Z,23.60
2022-12-06T15:04:06.359Z,12.38
2022-12-06T15:06:36.140Z,19.00
2022-12-06T15:09:03.437Z,16.05
2022-12-06T15:12:00.276Z,16.38
2022-12-06T15:14:48.097Z,27.17
2022-12-06T15:17:22.526Z,22.98
2022-12-06T15:19:53.696Z,18.48
2022-12-06T15:22:29.291Z,21.92
2022-12-06T15:25:00.420Z,24.55
2022-12-06T15:27:28.186Z,19.33
2022-12-06T15:29:55.914Z,14.05
2022-12-06T15:32:26.019Z,22.27
2022-12-06T15:34:56.175Z,57.92
2022-12-06T15:37:38.819Z,41.17
2022-12-06T15:40:07.681Z,47.00
2022-12-06T15:42:36.275Z,22.73
2022-12-06T15:45:03.710Z,21.63
2022-12-06T15:47:31.673Z,26.45
2022-12-06T15:49:59.040Z,32.80
2022-12-06T15:52:27.799Z,19.58
2022-12-06T15:54:54.928Z,34.30
2022-12-06T15:57:22.108Z,36.10
2022-12-06T15:59:49.872Z,34.35
2022-12-06T16:02:19.432Z,31.35
2022-12-06T16:04:50.584Z,24.10
2022-12-06T16:07:19.406Z,21.85
2022-12-06T16:09:48.026Z,30.20
2022-12-06T16:12:15.532Z,32.25
2022-12-06T16:14:42.796Z,40.17
2022-12-06T16:17:09.987Z,44.20
2022-12-06T16:19:55.857Z,36.78
2022-12-06T16:22:43.322Z,76.80
2022-12-06T16:25:10.765Z,133.20
2022-12-06T16:27:55.704Z,245.48
2022-12-06T16:30:58.771Z,205.35
2022-12-06T16:33:45.683Z,121.95
2022-12-06T16:36:51.894Z,60.85
2022-12-06T16:39:24.011Z,59.40
2022-12-06T16:41:50.990Z,70.57
2022-12-06T16:44:17.859Z,75.93
2022-12-06T16:46:46.795Z,59.97
2022-12-06T16:52:05.727Z,63.72
2022-12-06T16:54:32.928Z,66.57
2022-12-06T16:56:59.961Z,66.20
2022-12-06T16:59:27.215Z,68.88
2022-12-06T17:01:55.648Z,71.63
2022-12-06T17:04:23.370Z,31.92
2022-12-06T17:06:50.724Z,35.63
2022-12-06T17:09:17.671Z,39.08
2022-12-06T17:12:02.716Z,30.42
2022-12-06T17:14:30.154Z,25.48
2022-12-06T17:17:03.551Z,28.80
2022-12-06T17:19:32.373Z,32.85
2022-12-06T17:22:04.285Z,40.58
2022-12-06T17:24:31.324Z,32.33
2022-12-06T17:26:59.088Z,37.92
2022-12-06T17:29:26.357Z,41.92
2022-12-06T17:32:02.732Z,44.10
2022-12-06T17:34:29.800Z,32.60
2022-12-06T17:37:03.285Z,41.17
2022-12-06T17:39:30.274Z,42.13
2022-12-06T17:42:16.006Z,42.33
2022-12-06T17:44:43.099Z,40.40
2022-12-06T17:47:10.114Z,56.33
2022-12-06T17:49:38.505Z,59.10
2022-12-06T17:52:06.072Z,68.10
2022-12-06T17:54:34.788Z,78.95
2022-12-06T17:57:05.984Z,74.35
2022-12-06T17:59:39.937Z,72.45
2022-12-06T18:05:24.734Z,66.30
2022-12-06T18:07:51.861Z,71.10
2022-12-06T18:10:22.245Z,65.18
2022-12-06T18:13:01.205Z,54.80
2022-12-06T18:15:38.448Z,81.82
2022-12-06T18:18:15.357Z,70.22
2022-12-06T18:20:44.015Z,71.40
2022-12-06T18:23:11.050Z,76.18
2022-12-06T18:25:41.425Z,99.82
2022-12-06T18:28:09.015Z,119.72
2022-12-06T18:30:42.530Z,140.30
2022-12-06T18:33:16.234Z,144.38
2022-12-06T18:35:51.284Z,113.97
2022-12-06T18:38:28.402Z,102.78
2022-12-06T18:41:22.654Z,114.82
2022-12-06T18:43:49.815Z,116.03
2022-12-06T18:46:27.993Z,106.35
2022-12-06T18:49:00.170Z,98.88
2022-12-06T18:51:31.002Z,96.93
2022-12-06T18:53:59.518Z,89.00
2022-12-06T18:56:27.792Z,93.97
2022-12-06T18:58:55.022Z,110.75
2022-12-06T19:01:25.066Z,66.15
2022-12-06T19:03:52.858Z,61.55
2022-12-06T19:06:25.379Z,46.03
2022-12-06T19:12:03.366Z,60.03
2022-12-06T19:14:30.539Z,46.10
2022-12-06T19:16:58.347Z,68.18
2022-12-06T19:19:26.720Z,83.22
2022-12-06T19:21:54.704Z,69.55
2022-12-06T19:24:24.701Z,71.20
2022-12-06T19:26:59.312Z,77.07
2022-12-06T19:29:28.119Z,168.90
2022-12-06T19:31:55.137Z,149.90
2022-12-06T19:34:25.070Z,131.27
2022-12-06T19:36:53.625Z,118.68
2022-12-06T19:39:21.375Z,98.78
2022-12-06T19:42:06.852Z,75.78
2022-12-06T19:44:34.588Z,85.85
2022-12-06T19:47:02.787Z,65.95
2022-12-06T19:49:33.452Z,54.10
2022-12-06T19:52:04.226Z,64.03
2022-12-06T19:54:33.111Z,57.78
2022-12-06T19:57:01.397Z,60.72
2022-12-06T19:59:34.461Z,38.17
2022-12-06T20:02:03.442Z,47.17
2022-12-06T20:04:35.987Z,66.57
2022-12-06T20:07:05.002Z,75.30
2022-12-06T20:09:33.153Z,87.60
2022-12-06T20:12:01.808Z,178.50
2022-12-06T20:14:33.096Z,190.23
2022-12-06T20:17:00.693Z,144.13
2022-12-06T20:19:27.760Z,178.50
2022-12-06T20:21:55.300Z,222.15
2022-12-06T20:24:23.031Z,163.98
2022-12-06T20:26:52.354Z,220.32
2022-12-06T20:29:20.477Z,229.65
2022-12-06T20:32:11.625Z,268.65
2022-12-06T20:34:40.887Z,266.77
2022-12-06T20:37:08.297Z,279.45
2022-12-06T20:39:36.271Z,214.68
2022-12-06T20:42:05.865Z,224.43
2022-12-06T20:44:34.283Z,160.20
2022-12-06T20:47:01.503Z,209.75
2022-12-06T20:49:28.566Z,168.07
2022-12-06T20:51:56.703Z,214.57
2022-12-06T20:54:23.712Z,283.55
2022-12-06T20:56:53.674Z,150.77
2022-12-06T21:00:07.118Z,156.98
2022-12-06T21:02:35.188Z,238.65
2022-12-06T21:05:02.185Z,209.45
2022-12-06T21:07:29.033Z,170.38
2022-12-06T21:09:56.268Z,165.15
2022-12-06T21:12:23.234Z,177.02
2022-12-06T21:14:50.364Z,172.23
2022-12-06T21:17:17.329Z,156.60
2022-12-06T21:19:44.511Z,134.98
2022-12-06T21:22:11.781Z,207.77
2022-12-06T21:24:39.614Z,133.20
2022-12-06T21:27:06.586Z,125.25
2022-12-06T21:29:33.717Z,181.15
2022-12-06T21:32:01.700Z,197.98
2022-12-06T21:34:29.139Z,147.57
2022-12-06T21:36:56.158Z,156.98
2022-12-06T21:39:23.125Z,170.00
2022-12-06T21:41:50.600Z,128.45
2022-12-06T21:44:17.645Z,104.03
2022-12-06T21:46:44.829Z,114.68
2022-12-06T21:49:13.123Z,69.38
2022-12-06T21:51:40.341Z,99.40
2022-12-06T21:54:07.454Z,106.32
2022-12-06T21:56:35.124Z,99.97
2022-12-06T21:59:02.642Z,67.72
2022-12-06T22:01:31.143Z,79.93
2022-12-06T22:04:01.182Z,130.23
2022-12-06T22:06:28.357Z,86.57
2022-12-06T22:08:58.384Z,79.47
2022-12-06T22:11:25.380Z,77.80
2022-12-06T22:13:52.423Z,151.73
2022-12-06T22:16:19.570Z,65.30
2022-12-06T22:18:46.989Z,91.50
2022-12-06T22:21:19.401Z,97.20
2022-12-06T22:23:47.174Z,74.53
2022-12-06T22:26:17.724Z,55.92
2022-12-06T22:28:44.718Z,71.43
2022-12-06T22:31:13.146Z,66.25
2022-12-06T22:33:40.890Z,67.60
2022-12-06T22:36:08.778Z,53.00
2022-12-06T22:38:35.940Z,60.85
2022-12-06T22:41:03.254Z,63.53
2022-12-06T22:43:30.787Z,63.20
2022-12-06T22:46:09.708Z,56.78
2022-12-06T22:48:37.216Z,41.00
2022-12-06T22:51:24.783Z,50.97
2022-12-06T22:53:57.591Z,54.75
2022-12-06T22:56:26.004Z,130.70
2022-12-06T22:58:57.977Z,71.18
2022-12-06T23:01:27.569Z,84.00
2022-12-06T23:03:59.332Z,75.97
2022-12-06T23:06:26.681Z,87.18
2022-12-06T23:08:58.058Z,49.88
2022-12-06T23:11:34.025Z,59.05
2022-12-06T23:14:03.285Z,52.67
2022-12-06T23:16:31.314Z,60.30
2022-12-06T23:19:00.395Z,44.22
2022-12-06T23:21:33.149Z,53.28
2022-12-06T23:24:03.137Z,48.80
2022-12-06T23:26:33.990Z,53.10
2022-12-06T23:29:01.720Z,42.47
2022-12-06T23:31:31.487Z,36.80
2022-12-06T23:34:01.933Z,58.03
2022-12-06T23:36:32.268Z,46.80
2022-12-06T23:38:59.690Z,32.17
2022-12-06T23:41:30.041Z,42.00
2022-12-06T23:43:58.873Z,37.63
2022-12-06T23:46:29.255Z,34.72
2022-12-06T23:48:56.819Z,55.07
2022-12-06T23:51:27.083Z,28.05
2022-12-06T23:53:59.456Z,59.93
2022-12-06T23:56:28.985Z,74.68
2022-12-06T23:58:56.353Z,86.75
